sensor_id;sensor_type;location;lat;lon;timestamp;pressure;altitude;pressure_sealevel;temperature;humidity
47636;BME280;33364;50.766;15.338;2023-04-08T00:00:44;94891.78;;;1.16;81.31
47636;BME280;33364;50.766;15.338;2023-04-08T00:03:19;94891.50;;;1.11;81.63
47636;BME280;33364;50.766;15.338;2023-04-08T00:05:45;94891.63;;;1.03;81.72
47636;BME280;33364;50.766;15.338;2023-04-08T00:08:11;94882.16;;;1.02;81.27
47636;BME280;33364;50.766;15.338;2023-04-08T00:10:36;94881.56;;;1.00;81.55
47636;BME280;33364;50.766;15.338;2023-04-08T00:13:02;94881.75;;;0.98;81.72
47636;BME280;33364;50.766;15.338;2023-04-08T00:15:27;94877.31;;;0.99;81.53
47636;BME280;33364;50.766;15.338;2023-04-08T00:17:53;94880.53;;;1.01;81.41
47636;BME280;33364;50.766;15.338;2023-04-08T00:20:21;94881.28;;;0.95;81.75
47636;BME280;33364;50.766;15.338;2023-04-08T00:22:47;94873.38;;;0.88;82.28
47636;BME280;33364;50.766;15.338;2023-04-08T00:25:12;94883.03;;;0.87;81.92
47636;BME280;33364;50.766;15.338;2023-04-08T00:27:38;94877.19;;;0.85;82.27
47636;BME280;33364;50.766;15.338;2023-04-08T00:30:04;94884.19;;;0.85;82.54
47636;BME280;33364;50.766;15.338;2023-04-08T00:32:30;94878.97;;;0.85;82.56
47636;BME280;33364;50.766;15.338;2023-04-08T00:34:56;94882.41;;;0.85;82.34
47636;BME280;33364;50.766;15.338;2023-04-08T00:37:22;94884.38;;;0.83;82.90
47636;BME280;33364;50.766;15.338;2023-04-08T00:39:47;94888.44;;;0.86;82.86
47636;BME280;33364;50.766;15.338;2023-04-08T00:42:13;94887.78;;;0.99;83.15
47636;BME280;33364;50.766;15.338;2023-04-08T00:44:38;94896.72;;;1.11;83.77
47636;BME280;33364;50.766;15.338;2023-04-08T00:47:04;94896.06;;;1.24;83.50
47636;BME280;33364;50.766;15.338;2023-04-08T00:49:31;94894.69;;;1.28;83.19
47636;BME280;33364;50.766;15.338;2023-04-08T00:51:58;94900.16;;;1.33;83.42
47636;BME280;33364;50.766;15.338;2023-04-08T00:54:24;94899.25;;;1.41;83.72
47636;BME280;33364;50.766;15.338;2023-04-08T00:56:50;94907.53;;;1.44;83.80
47636;BME280;33364;50.766;15.338;2023-04-08T00:59:16;94907.09;;;1.41;84.00
47636;BME280;33364;50.766;15.338;2023-04-08T01:01:43;94909.97;;;1.46;84.06
47636;BME280;33364;50.766;15.338;2023-04-08T01:06:57;94914.75;;;1.42;83.91
47636;BME280;33364;50.766;15.338;2023-04-08T01:09:27;94920.44;;;1.46;83.68
47636;BME280;33364;50.766;15.338;2023-04-08T01:11:55;94922.03;;;1.47;83.59
47636;BME280;33364;50.766;15.338;2023-04-08T01:14:25;94923.66;;;1.48;83.60
47636;BME280;33364;50.766;15.338;2023-04-08T01:16:54;94927.25;;;1.47;83.52
47636;BME280;33364;50.766;15.338;2023-04-08T01:19:30;94918.28;;;1.56;83.52
47636;BME280;33364;50.766;15.338;2023-04-08T01:22:04;94920.28;;;1.54;83.19
47636;BME280;33364;50.766;15.338;2023-04-08T01:24:38;94926.94;;;1.57;83.22
47636;BME280;33364;50.766;15.338;2023-04-08T01:27:06;94922.91;;;1.54;83.48
47636;BME280;33364;50.766;15.338;2023-04-08T01:29:33;94926.34;;;1.55;83.27
47636;BME280;33364;50.766;15.338;2023-04-08T01:32:00;94921.09;;;1.55;83.34
47636;BME280;33364;50.766;15.338;2023-04-08T01:34:27;94918.72;;;1.60;83.45
47636;BME280;33364;50.766;15.338;2023-04-08T01:36:54;94924.50;;;1.55;83.24
47636;BME280;33364;50.766;15.338;2023-04-08T01:39:21;94924.28;;;1.50;83.70
47636;BME280;33364;50.766;15.338;2023-04-08T01:41:49;94926.09;;;1.50;83.51
47636;BME280;33364;50.766;15.338;2023-04-08T01:44:18;94915.63;;;1.50;83.66
47636;BME280;33364;50.766;15.338;2023-04-08T01:46:46;94915.19;;;1.46;84.09
47636;BME280;33364;50.766;15.338;2023-04-08T01:49:14;94914.34;;;1.45;84.04
47636;BME280;33364;50.766;15.338;2023-04-08T01:51:42;94915.50;;;1.36;84.72
47636;BME280;33364;50.766;15.338;2023-04-08T01:54:09;94911.31;;;1.42;84.35
47636;BME280;33364;50.766;15.338;2023-04-08T01:56:38;94905.41;;;1.33;84.47
47636;BME280;33364;50.766;15.338;2023-04-08T01:59:09;94909.66;;;1.34;84.48
47636;BME280;33364;50.766;15.338;2023-04-08T02:01:36;94907.41;;;1.31;84.48
47636;BME280;33364;50.766;15.338;2023-04-08T02:04:03;94913.44;;;1.32;84.65
47636;BME280;33364;50.766;15.338;2023-04-08T02:06:29;94919.16;;;1.42;84.52
47636;BME280;33364;50.766;15.338;2023-04-08T02:08:55;94920.75;;;1.36;84.51
47636;BME280;33364;50.766;15.338;2023-04-08T02:11:21;94919.53;;;1.39;84.53
47636;BME280;33364;50.766;15.338;2023-04-08T02:13:47;94921.53;;;1.37;84.51
47636;BME280;33364;50.766;15.338;2023-04-08T02:16:28;94925.97;;;1.36;84.72
47636;BME280;33364;50.766;15.338;2023-04-08T02:19:01;94921.16;;;1.40;84.67
47636;BME280;33364;50.766;15.338;2023-04-08T02:21:48;94919.16;;;1.42;84.54
47636;BME280;33364;50.766;15.338;2023-04-08T02:24:16;94924.03;;;1.45;84.40
47636;BME280;33364;50.766;15.338;2023-04-08T02:26:43;94910.94;;;1.45;84.25
47636;BME280;33364;50.766;15.338;2023-04-08T02:29:14;94928.28;;;1.46;83.86
47636;BME280;33364;50.766;15.338;2023-04-08T02:31:41;94923.66;;;1.48;83.85
47636;BME280;33364;50.766;15.338;2023-04-08T02:34:11;94922.31;;;1.52;83.52
47636;BME280;33364;50.766;15.338;2023-04-08T02:36:38;94923.91;;;1.53;83.33
47636;BME280;33364;50.766;15.338;2023-04-08T02:39:05;94919.69;;;1.52;83.06
47636;BME280;33364;50.766;15.338;2023-04-08T02:41:31;94924.09;;;1.52;83.18
47636;BME280;33364;50.766;15.338;2023-04-08T02:43:57;94926.53;;;1.53;82.84
47636;BME280;33364;50.766;15.338;2023-04-08T02:46:23;94922.50;;;1.51;83.31
47636;BME280;33364;50.766;15.338;2023-04-08T02:48:49;94928.53;;;1.51;83.03
47636;BME280;33364;50.766;15.338;2023-04-08T02:51:15;94920.84;;;1.50;83.12
47636;BME280;33364;50.766;15.338;2023-04-08T02:53:41;94923.66;;;1.48;83.14
47636;BME280;33364;50.766;15.338;2023-04-08T02:56:09;94919.59;;;1.45;83.06
47636;BME280;33364;50.766;15.338;2023-04-08T02:58:36;94922.16;;;1.39;83.82
47636;BME280;33364;50.766;15.338;2023-04-08T03:01:02;94921.16;;;1.40;83.69
47636;BME280;33364;50.766;15.338;2023-04-08T03:03:27;94919.00;;;1.22;84.71
47636;BME280;33364;50.766;15.338;2023-04-08T03:05:55;94926.59;;;1.17;84.46
47636;BME280;33364;50.766;15.338;2023-04-08T03:08:21;94924.59;;;1.19;84.15
47636;BME280;33364;50.766;15.338;2023-04-08T03:10:47;94926.47;;;1.25;84.04
47636;BME280;33364;50.766;15.338;2023-04-08T03:13:14;94920.44;;;1.24;84.11
47636;BME280;33364;50.766;15.338;2023-04-08T03:15:40;94916.06;;;1.32;83.77
47636;BME280;33364;50.766;15.338;2023-04-08T03:18:06;94925.75;;;1.31;83.40
47636;BME280;33364;50.766;15.338;2023-04-08T03:20:32;94921.25;;;1.25;83.60
47636;BME280;33364;50.766;15.338;2023-04-08T03:22:58;94925.41;;;1.19;84.05
47636;BME280;33364;50.766;15.338;2023-04-08T03:25:24;94932.63;;;1.17;83.80
47636;BME280;33364;50.766;15.338;2023-04-08T03:27:50;94935.31;;;1.24;83.85
47636;BME280;33364;50.766;15.338;2023-04-08T03:30:16;94930.72;;;1.26;83.68
47636;BME280;33364;50.766;15.338;2023-04-08T03:32:42;94936.16;;;1.24;83.24
47636;BME280;33364;50.766;15.338;2023-04-08T03:35:08;94936.44;;;1.36;83.42
47636;BME280;33364;50.766;15.338;2023-04-08T03:37:34;94940.59;;;1.31;83.67
47636;BME280;33364;50.766;15.338;2023-04-08T03:39:59;94937.63;;;1.34;83.86
47636;BME280;33364;50.766;15.338;2023-04-08T03:42:25;94940.00;;;1.28;83.81
47636;BME280;33364;50.766;15.338;2023-04-08T03:44:51;94939.88;;;1.37;83.68
47636;BME280;33364;50.766;15.338;2023-04-08T03:47:17;94938.81;;;1.31;83.75
47636;BME280;33364;50.766;15.338;2023-04-08T03:49:43;94944.84;;;1.32;83.66
47636;BME280;33364;50.766;15.338;2023-04-08T03:52:08;94957.81;;;1.40;83.74
47636;BME280;33364;50.766;15.338;2023-04-08T03:54:34;94959.47;;;1.41;83.61
47636;BME280;33364;50.766;15.338;2023-04-08T03:57:00;94961.44;;;1.39;83.45
47636;BME280;33364;50.766;15.338;2023-04-08T03:59:26;94963.50;;;1.43;83.65
47636;BME280;33364;50.766;15.338;2023-04-08T04:01:51;94965.31;;;1.43;83.47
47636;BME280;33364;50.766;15.338;2023-04-08T04:04:18;94976.59;;;1.43;83.50
47636;BME280;33364;50.766;15.338;2023-04-08T04:06:44;94980.47;;;1.48;83.28
47636;BME280;33364;50.766;15.338;2023-04-08T04:09:10;94978.22;;;1.44;83.59
47636;BME280;33364;50.766;15.338;2023-04-08T04:11:36;94984.25;;;1.45;83.47
47636;BME280;33364;50.766;15.338;2023-04-08T04:14:02;94989.91;;;1.49;82.90
47636;BME280;33364;50.766;15.338;2023-04-08T04:16:28;94984.50;;;1.50;82.96
47636;BME280;33364;50.766;15.338;2023-04-08T04:18:54;94993.38;;;1.49;83.02
47636;BME280;33364;50.766;15.338;2023-04-08T04:21:20;94996.97;;;1.48;83.03
47636;BME280;33364;50.766;15.338;2023-04-08T04:23:46;95001.84;;;1.51;82.87
47636;BME280;33364;50.766;15.338;2023-04-08T04:26:11;95008.31;;;1.55;83.02
47636;BME280;33364;50.766;15.338;2023-04-08T04:28:37;95010.13;;;1.55;82.64
47636;BME280;33364;50.766;15.338;2023-04-08T04:31:03;95021.41;;;1.55;82.66
47636;BME280;33364;50.766;15.338;2023-04-08T04:33:30;95021.69;;;1.60;82.86
47636;BME280;33364;50.766;15.338;2023-04-08T04:35:56;95023.09;;;1.63;82.49
47636;BME280;33364;50.766;15.338;2023-04-08T04:38:22;95025.47;;;1.58;82.48
47636;BME280;33364;50.766;15.338;2023-04-08T04:40:47;95026.47;;;1.57;82.55
47636;BME280;33364;50.766;15.338;2023-04-08T04:43:13;95021.03;;;1.58;82.02
47636;BME280;33364;50.766;15.338;2023-04-08T04:45:39;95015.19;;;1.56;82.40
47636;BME280;33364;50.766;15.338;2023-04-08T04:48:05;95014.94;;;1.51;82.78
47636;BME280;33364;50.766;15.338;2023-04-08T04:50:31;95013.94;;;1.52;82.72
47636;BME280;33364;50.766;15.338;2023-04-08T04:52:57;95020.78;;;1.53;82.57
47636;BME280;33364;50.766;15.338;2023-04-08T04:55:22;95017.97;;;1.55;82.66
47636;BME280;33364;50.766;15.338;2023-04-08T04:57:48;95016.56;;;1.52;82.55
47636;BME280;33364;50.766;15.338;2023-04-08T05:00:14;95020.78;;;1.53;82.79
47636;BME280;33364;50.766;15.338;2023-04-08T05:02:41;95021.72;;;1.45;82.57
47636;BME280;33364;50.766;15.338;2023-04-08T05:05:07;95021.28;;;1.42;82.57
47636;BME280;33364;50.766;15.338;2023-04-08T05:07:37;95027.91;;;1.38;82.59
47636;BME280;33364;50.766;15.338;2023-04-08T05:10:03;95029.50;;;1.39;82.36
47636;BME280;33364;50.766;15.338;2023-04-08T05:12:29;95033.25;;;1.30;82.36
47636;BME280;33364;50.766;15.338;2023-04-08T05:14:57;95033.78;;;1.25;82.61
47636;BME280;33364;50.766;15.338;2023-04-08T05:17:24;95038.59;;;1.21;82.33
47636;BME280;33364;50.766;15.338;2023-04-08T05:19:50;95034.16;;;1.22;82.27
47636;BME280;33364;50.766;15.338;2023-04-08T05:22:18;95038.59;;;1.21;82.21
47636;BME280;33364;50.766;15.338;2023-04-08T05:24:43;95044.19;;;1.18;82.31
47636;BME280;33364;50.766;15.338;2023-04-08T05:27:09;95055.44;;;1.19;82.52
47636;BME280;33364;50.766;15.338;2023-04-08T05:29:35;95059.53;;;1.21;82.52
47636;BME280;33364;50.766;15.338;2023-04-08T05:32:01;95056.91;;;1.21;82.66
47636;BME280;33364;50.766;15.338;2023-04-08T05:34:26;95063.94;;;1.21;82.36
47636;BME280;33364;50.766;15.338;2023-04-08T05:36:52;95065.81;;;1.27;82.07
47636;BME280;33364;50.766;15.338;2023-04-08T05:39:18;95055.34;;;1.27;82.19
47636;BME280;33364;50.766;15.338;2023-04-08T05:41:45;95070.94;;;1.35;81.96
47636;BME280;33364;50.766;15.338;2023-04-08T05:44:11;95077.00;;;1.36;81.87
47636;BME280;33364;50.766;15.338;2023-04-08T05:46:37;95070.66;;;1.45;81.78
47636;BME280;33364;50.766;15.338;2023-04-08T05:49:03;95079.59;;;1.51;81.32
47636;BME280;33364;50.766;15.338;2023-04-08T05:51:29;95079.78;;;1.49;80.65
47636;BME280;33364;50.766;15.338;2023-04-08T05:53:55;95081.19;;;1.52;80.42
47636;BME280;33364;50.766;15.338;2023-04-08T05:56:21;95085.28;;;1.54;80.37
47636;BME280;33364;50.766;15.338;2023-04-08T05:58:46;95086.13;;;1.61;80.68
47636;BME280;33364;50.766;15.338;2023-04-08T06:01:12;95082.16;;;1.65;80.11
47636;BME280;33364;50.766;15.338;2023-04-08T06:03:38;95082.25;;;1.72;80.82
47636;BME280;33364;50.766;15.338;2023-04-08T06:06:09;95097.22;;;1.78;80.23
47636;BME280;33364;50.766;15.338;2023-04-08T06:08:36;95088.03;;;1.89;79.38
47636;BME280;33364;50.766;15.338;2023-04-08T06:11:02;95091.28;;;1.91;78.83
47636;BME280;33364;50.766;15.338;2023-04-08T06:13:30;95102.59;;;1.92;79.17
47636;BME280;33364;50.766;15.338;2023-04-08T06:15:56;95100.22;;;1.97;78.50
47636;BME280;33364;50.766;15.338;2023-04-08T06:18:22;95105.16;;;2.07;78.09
47636;BME280;33364;50.766;15.338;2023-04-08T06:20:48;95096.66;;;2.05;78.19
47636;BME280;33364;50.766;15.338;2023-04-08T06:23:13;95106.50;;;2.02;78.08
47636;BME280;33364;50.766;15.338;2023-04-08T06:25:39;95097.16;;;2.15;76.63
47636;BME280;33364;50.766;15.338;2023-04-08T06:28:04;95099.78;;;2.15;77.19
47636;BME280;33364;50.766;15.338;2023-04-08T06:30:30;95105.59;;;2.10;77.84
47636;BME280;33364;50.766;15.338;2023-04-08T06:32:56;95103.75;;;2.11;77.50
47636;BME280;33364;50.766;15.338;2023-04-08T06:35:22;95101.13;;;2.11;77.58
47636;BME280;33364;50.766;15.338;2023-04-08T06:37:47;95094.28;;;2.10;77.63
47636;BME280;33364;50.766;15.338;2023-04-08T06:40:13;95098.38;;;2.19;77.88
47636;BME280;33364;50.766;15.338;2023-04-08T06:42:39;95094.03;;;2.26;77.79
47636;BME280;33364;50.766;15.338;2023-04-08T06:45:08;95101.38;;;2.37;77.87
47636;BME280;33364;50.766;15.338;2023-04-08T06:47:33;95106.78;;;2.57;77.86
47636;BME280;33364;50.766;15.338;2023-04-08T06:49:59;95111.50;;;2.69;77.61
47636;BME280;33364;50.766;15.338;2023-04-08T06:52:25;95115.16;;;2.74;77.03
47636;BME280;33364;50.766;15.338;2023-04-08T06:54:51;95111.00;;;2.80;76.93
47636;BME280;33364;50.766;15.338;2023-04-08T06:57:17;95113.56;;;2.73;75.72
47636;BME280;33364;50.766;15.338;2023-04-08T06:59:43;95115.66;;;2.85;75.76
47636;BME280;33364;50.766;15.338;2023-04-08T07:02:08;95119.00;;;3.07;75.64
47636;BME280;33364;50.766;15.338;2023-04-08T07:04:34;95108.31;;;3.08;75.53
47636;BME280;33364;50.766;15.338;2023-04-08T07:07:00;95123.03;;;3.03;74.59
47636;BME280;33364;50.766;15.338;2023-04-08T07:09:26;95118.44;;;3.11;74.68
47636;BME280;33364;50.766;15.338;2023-04-08T07:11:51;95119.88;;;3.14;75.65
47636;BME280;33364;50.766;15.338;2023-04-08T07:14:17;95125.72;;;3.09;75.18
47636;BME280;33364;50.766;15.338;2023-04-08T07:16:43;95136.50;;;2.93;74.69
47636;BME280;33364;50.766;15.338;2023-04-08T07:19:09;95133.34;;;3.04;75.73
47636;BME280;33364;50.766;15.338;2023-04-08T07:21:36;95139.88;;;3.15;76.24
47636;BME280;33364;50.766;15.338;2023-04-08T07:24:02;95145.84;;;3.02;76.02
47636;BME280;33364;50.766;15.338;2023-04-08T07:26:27;95150.63;;;2.92;76.14
47636;BME280;33364;50.766;15.338;2023-04-08T07:28:53;95157.88;;;2.90;75.85
47636;BME280;33364;50.766;15.338;2023-04-08T07:31:19;95168.00;;;2.93;76.38
47636;BME280;33364;50.766;15.338;2023-04-08T07:33:45;95165.19;;;2.94;76.28
47636;BME280;33364;50.766;15.338;2023-04-08T07:36:11;95168.44;;;2.97;76.55
47636;BME280;33364;50.766;15.338;2023-04-08T07:38:38;95170.06;;;2.98;76.47
47636;BME280;33364;50.766;15.338;2023-04-08T07:41:04;95175.94;;;3.00;76.78
47636;BME280;33364;50.766;15.338;2023-04-08T07:43:31;95179.81;;;3.10;76.41
47636;BME280;33364;50.766;15.338;2023-04-08T07:46:05;95180.94;;;2.94;75.85
47636;BME280;33364;50.766;15.338;2023-04-08T07:48:32;95174.84;;;2.94;76.02
47636;BME280;33364;50.766;15.338;2023-04-08T07:50:57;95190.56;;;2.87;76.95
47636;BME280;33364;50.766;15.338;2023-04-08T07:53:27;95197.03;;;2.63;76.88
47636;BME280;33364;50.766;15.338;2023-04-08T07:55:52;95196.03;;;2.64;77.58
47636;BME280;33364;50.766;15.338;2023-04-08T07:58:18;95197.16;;;2.77;77.71
47636;BME280;33364;50.766;15.338;2023-04-08T08:00:44;95197.81;;;2.85;77.38
47636;BME280;33364;50.766;15.338;2023-04-08T08:03:10;95196.50;;;2.74;76.42
47636;BME280;33364;50.766;15.338;2023-04-08T08:05:35;95199.78;;;2.77;76.65
47636;BME280;33364;50.766;15.338;2023-04-08T08:08:02;95202.78;;;2.73;77.43
47636;BME280;33364;50.766;15.338;2023-04-08T08:10:28;95204.31;;;2.89;76.09
47636;BME280;33364;50.766;15.338;2023-04-08T08:12:54;95204.94;;;2.91;75.92
47636;BME280;33364;50.766;15.338;2023-04-08T08:15:19;95211.78;;;2.92;75.17
47636;BME280;33364;50.766;15.338;2023-04-08T08:17:45;95224.88;;;2.86;75.43
47636;BME280;33364;50.766;15.338;2023-04-08T08:20:11;95228.41;;;2.71;75.93
47636;BME280;33364;50.766;15.338;2023-04-08T08:22:37;95230.13;;;2.86;74.84
47636;BME280;33364;50.766;15.338;2023-04-08T08:25:05;95227.63;;;2.78;74.96
47636;BME280;33364;50.766;15.338;2023-04-08T08:27:32;95229.31;;;2.85;75.10
47636;BME280;33364;50.766;15.338;2023-04-08T08:29:59;95235.59;;;2.91;75.03
47636;BME280;33364;50.766;15.338;2023-04-08T08:32:24;95236.81;;;2.88;75.22
47636;BME280;33364;50.766;15.338;2023-04-08T08:34:50;95243.09;;;2.94;75.12
47636;BME280;33364;50.766;15.338;2023-04-08T08:37:16;95242.34;;;3.00;74.84
47636;BME280;33364;50.766;15.338;2023-04-08T08:39:41;95248.06;;;3.10;73.24
47636;BME280;33364;50.766;15.338;2023-04-08T08:42:20;95251.34;;;3.12;73.66
47636;BME280;33364;50.766;15.338;2023-04-08T08:44:47;95259.75;;;3.01;72.72
47636;BME280;33364;50.766;15.338;2023-04-08T08:47:13;95258.09;;;3.00;72.52
47636;BME280;33364;50.766;15.338;2023-04-08T08:49:39;95265.00;;;3.01;71.78
47636;BME280;33364;50.766;15.338;2023-04-08T08:52:05;95271.91;;;3.09;72.85
47636;BME280;33364;50.766;15.338;2023-04-08T08:54:31;95270.97;;;3.17;71.98
47636;BME280;33364;50.766;15.338;2023-04-08T08:56:57;95265.75;;;3.23;71.49
47636;BME280;33364;50.766;15.338;2023-04-08T08:59:22;95275.31;;;3.31;71.89
47636;BME280;33364;50.766;15.338;2023-04-08T09:01:48;95269.38;;;3.51;71.75
47636;BME280;33364;50.766;15.338;2023-04-08T09:04:15;95265.81;;;3.58;71.87
47636;BME280;33364;50.766;15.338;2023-04-08T09:06:50;95269.31;;;4.07;72.18
47636;BME280;33364;50.766;15.338;2023-04-08T09:09:46;95274.59;;;4.14;70.15
47636;BME280;33364;50.766;15.338;2023-04-08T09:12:12;95271.41;;;4.25;69.08
47636;BME280;33364;50.766;15.338;2023-04-08T09:14:38;95275.53;;;4.54;69.90
47636;BME280;33364;50.766;15.338;2023-04-08T09:17:05;95263.06;;;5.10;68.38
47636;BME280;33364;50.766;15.338;2023-04-08T09:19:30;95273.19;;;5.06;66.72
47636;BME280;33364;50.766;15.338;2023-04-08T09:22:07;95283.31;;;5.29;66.56
47636;BME280;33364;50.766;15.338;2023-04-08T09:24:33;95280.91;;;5.08;67.12
47636;BME280;33364;50.766;15.338;2023-04-08T09:26:59;95283.72;;;5.00;66.76
47636;BME280;33364;50.766;15.338;2023-04-08T09:29:25;95292.19;;;4.82;66.75
47636;BME280;33364;50.766;15.338;2023-04-08T09:31:57;95289.44;;;4.35;68.51
47636;BME280;33364;50.766;15.338;2023-04-08T09:34:23;95288.81;;;4.33;69.63
47636;BME280;33364;50.766;15.338;2023-04-08T09:36:51;95289.44;;;4.35;70.11
47636;BME280;33364;50.766;15.338;2023-04-08T09:39:17;95288.53;;;4.63;68.90
47636;BME280;33364;50.766;15.338;2023-04-08T09:41:44;95289.53;;;4.62;68.02
47636;BME280;33364;50.766;15.338;2023-04-08T09:44:14;95292.03;;;5.10;67.88
47636;BME280;33364;50.766;15.338;2023-04-08T09:52:07;95290.50;;;6.21;63.66
47636;BME280;33364;50.766;15.338;2023-04-08T09:54:56;95301.63;;;6.36;63.32
47636;BME280;33364;50.766;15.338;2023-04-08T09:57:40;95293.63;;;5.78;63.60
47636;BME280;33364;50.766;15.338;2023-04-08T10:00:18;95296.00;;;6.13;64.35
47636;BME280;33364;50.766;15.338;2023-04-08T10:05:47;95292.97;;;7.31;61.02
47636;BME280;33364;50.766;15.338;2023-04-08T10:08:15;95297.00;;;7.59;60.75
47636;BME280;33364;50.766;15.338;2023-04-08T10:10:41;95295.13;;;7.41;59.47
47636;BME280;33364;50.766;15.338;2023-04-08T10:13:08;95289.59;;;7.17;59.28
47636;BME280;33364;50.766;15.338;2023-04-08T10:15:34;95294.34;;;7.41;59.75
47636;BME280;33364;50.766;15.338;2023-04-08T10:23:12;95304.06;;;7.90;56.85
47636;BME280;33364;50.766;15.338;2023-04-08T10:25:40;95302.16;;;7.54;56.78
47636;BME280;33364;50.766;15.338;2023-04-08T10:30:43;95311.47;;;6.61;59.17
47636;BME280;33364;50.766;15.338;2023-04-08T10:38:34;95328.75;;;5.51;61.04
47636;BME280;33364;50.766;15.338;2023-04-08T10:41:00;95325.50;;;5.49;61.81
47636;BME280;33364;50.766;15.338;2023-04-08T10:43:32;95335.22;;;5.36;61.80
47636;BME280;33364;50.766;15.338;2023-04-08T10:45:58;95328.94;;;5.23;62.36
47636;BME280;33364;50.766;15.338;2023-04-08T10:48:24;95333.19;;;5.24;63.36
47636;BME280;33364;50.766;15.338;2023-04-08T10:50:57;95327.91;;;5.24;62.51
47636;BME280;33364;50.766;15.338;2023-04-08T10:53:33;95324.69;;;5.22;62.38
47636;BME280;33364;50.766;15.338;2023-04-08T10:56:06;95316.78;;;5.36;62.38
47636;BME280;33364;50.766;15.338;2023-04-08T10:58:33;95331.38;;;5.38;63.26
47636;BME280;33364;50.766;15.338;2023-04-08T11:01:05;95323.44;;;5.18;64.09
47636;BME280;33364;50.766;15.338;2023-04-08T11:03:35;95329.47;;;4.92;65.45
47636;BME280;33364;50.766;15.338;2023-04-08T11:06:01;95337.53;;;4.77;65.53
47636;BME280;33364;50.766;15.338;2023-04-08T11:08:33;95328.94;;;4.41;67.60
47636;BME280;33364;50.766;15.338;2023-04-08T11:11:00;95329.78;;;4.55;67.66
47636;BME280;33364;50.766;15.338;2023-04-08T11:13:27;95334.03;;;4.50;67.09
47636;BME280;33364;50.766;15.338;2023-04-08T11:15:54;95327.00;;;4.77;66.68
47636;BME280;33364;50.766;15.338;2023-04-08T11:18:21;95325.84;;;4.86;65.59
47636;BME280;33364;50.766;15.338;2023-04-08T11:20:51;95315.72;;;5.10;64.64
47636;BME280;33364;50.766;15.338;2023-04-08T11:23:17;95311.69;;;5.81;64.05
47636;BME280;33364;50.766;15.338;2023-04-08T11:25:44;95309.44;;;6.63;62.63
47636;BME280;33364;50.766;15.338;2023-04-08T11:28:12;95319.31;;;6.81;61.24
47636;BME280;33364;50.766;15.338;2023-04-08T11:30:39;95323.06;;;6.98;59.13
47636;BME280;33364;50.766;15.338;2023-04-08T11:33:09;95317.97;;;7.04;58.86
47636;BME280;33364;50.766;15.338;2023-04-08T11:35:41;95316.88;;;6.79;60.27
47636;BME280;33364;50.766;15.338;2023-04-08T11:38:09;95325.25;;;6.70;60.26
47636;BME280;33364;50.766;15.338;2023-04-08T11:40:35;95318.78;;;6.66;59.32
47636;BME280;33364;50.766;15.338;2023-04-08T11:43:11;95323.78;;;7.44;60.70
47636;BME280;33364;50.766;15.338;2023-04-08T11:45:40;95326.75;;;7.29;58.13
47636;BME280;33364;50.766;15.338;2023-04-08T11:48:10;95326.38;;;7.26;57.13
47636;BME280;33364;50.766;15.338;2023-04-08T11:50:36;95319.81;;;7.28;58.24
47636;BME280;33364;50.766;15.338;2023-04-08T11:53:02;95323.19;;;7.42;56.73
47636;BME280;33364;50.766;15.338;2023-04-08T11:55:29;95323.06;;;7.30;56.38
47636;BME280;33364;50.766;15.338;2023-04-08T11:58:00;95324.94;;;7.23;56.96
47636;BME280;33364;50.766;15.338;2023-04-08T12:00:26;95332.13;;;7.41;57.54
47636;BME280;33364;50.766;15.338;2023-04-08T12:02:53;95324.28;;;8.03;56.04
47636;BME280;33364;50.766;15.338;2023-04-08T12:05:19;95321.22;;;8.25;55.52
47636;BME280;33364;50.766;15.338;2023-04-08T12:07:45;95328.91;;;7.64;55.26
47636;BME280;33364;50.766;15.338;2023-04-08T12:10:11;95320.59;;;7.61;56.60
47636;BME280;33364;50.766;15.338;2023-04-08T12:12:38;95325.75;;;7.24;56.58
47636;BME280;33364;50.766;15.338;2023-04-08T12:15:04;95324.38;;;6.83;58.57
47636;BME280;33364;50.766;15.338;2023-04-08T12:17:30;95322.09;;;6.86;59.79
47636;BME280;33364;50.766;15.338;2023-04-08T12:19:56;95321.88;;;6.94;59.44
47636;BME280;33364;50.766;15.338;2023-04-08T12:22:22;95329.44;;;6.84;58.02
47636;BME280;33364;50.766;15.338;2023-04-08T12:24:47;95326.75;;;6.46;59.01
47636;BME280;33364;50.766;15.338;2023-04-08T12:27:13;95330.72;;;6.23;60.42
47636;BME280;33364;50.766;15.338;2023-04-08T12:29:39;95330.91;;;6.28;59.74
47636;BME280;33364;50.766;15.338;2023-04-08T12:32:05;95339.59;;;6.35;59.64
47636;BME280;33364;50.766;15.338;2023-04-08T12:34:31;95336.94;;;6.42;59.73
47636;BME280;33364;50.766;15.338;2023-04-08T12:36:57;95337.09;;;6.60;60.27
47636;BME280;33364;50.766;15.338;2023-04-08T12:39:23;95339.03;;;6.78;58.70
47636;BME280;33364;50.766;15.338;2023-04-08T12:41:50;95337.09;;;6.60;59.31
47636;BME280;33364;50.766;15.338;2023-04-08T12:44:16;95347.72;;;6.34;59.67
47636;BME280;33364;50.766;15.338;2023-04-08T12:46:42;95345.09;;;6.27;60.48
47636;BME280;33364;50.766;15.338;2023-04-08T12:49:07;95345.69;;;6.29;60.45
47636;BME280;33364;50.766;15.338;2023-04-08T12:51:34;95349.38;;;6.21;61.03
47636;BME280;33364;50.766;15.338;2023-04-08T12:54:03;95347.75;;;6.20;61.25
47636;BME280;33364;50.766;15.338;2023-04-08T12:56:30;95344.53;;;6.12;61.68
47636;BME280;33364;50.766;15.338;2023-04-08T12:58:57;95346.97;;;6.13;61.97
47636;BME280;33364;50.766;15.338;2023-04-08T13:01:23;95356.09;;;6.11;62.50
47636;BME280;33364;50.766;15.338;2023-04-08T13:03:49;95342.91;;;5.91;62.33
47636;BME280;33364;50.766;15.338;2023-04-08T13:06:15;95357.94;;;5.70;63.17
47636;BME280;33364;50.766;15.338;2023-04-08T13:08:41;95351.06;;;5.69;63.44
47636;BME280;33364;50.766;15.338;2023-04-08T13:11:07;95357.94;;;5.70;62.97
47636;BME280;33364;50.766;15.338;2023-04-08T13:13:33;95362.41;;;5.63;63.32
47636;BME280;33364;50.766;15.338;2023-04-08T13:15:59;95366.25;;;5.40;64.16
47636;BME280;33364;50.766;15.338;2023-04-08T13:18:25;95353.47;;;5.30;64.64
47636;BME280;33364;50.766;15.338;2023-04-08T13:20:51;95367.03;;;5.27;64.23
47636;BME280;33364;50.766;15.338;2023-04-08T13:23:18;95370.13;;;5.44;63.77